sensor_id;sensor_type;location;lat;lon;timestamp;temperature;humidity
11079;DHT22;5592;49.234;7.268;2023-04-03T00:02:05;4.30;99.90
11079;DHT22;5592;49.234;7.268;2023-04-03T00:04:31;4.30;99.90
11079;DHT22;5592;49.234;7.268;2023-04-03T00:06:56;4.30;99.90
11079;DHT22;5592;49.234;7.268;2023-04-03T00:09:22;4.30;99.90
11079;DHT22;5592;49.234;7.268;2023-04-03T00:11:47;4.30;99.90
11079;DHT22;5592;49.234;7.268;2023-04-03T00:14:13;4.30;99.90
11079;DHT22;5592;49.234;7.268;2023-04-03T00:16:39;4.20;99.90
11079;DHT22;5592;49.234;7.268;2023-04-03T00:19:04;4.20;99.90
11079;DHT22;5592;49.234;7.268;2023-04-03T00:21:30;4.20;99.90
11079;DHT22;5592;49.234;7.268;2023-04-03T00:23:56;4.20;99.90
11079;DHT22;5592;49.234;7.268;2023-04-03T00:26:22;4.20;99.90
11079;DHT22;5592;49.234;7.268;2023-04-03T00:28:48;4.20;99.90
11079;DHT22;5592;49.234;7.268;2023-04-03T00:31:17;4.10;99.90
11079;DHT22;5592;49.234;7.268;2023-04-03T00:33:42;4.20;99.90
11079;DHT22;5592;49.234;7.268;2023-04-03T00:36:09;4.20;99.90
11079;DHT22;5592;49.234;7.268;2023-04-03T00:38:35;4.20;99.90
11079;DHT22;5592;49.234;7.268;2023-04-03T00:41:02;4.20;99.90
11079;DHT22;5592;49.234;7.268;2023-04-03T00:43:28;4.10;99.90
11079;DHT22;5592;49.234;7.268;2023-04-03T00:45:55;4.10;99.90
11079;DHT22;5592;49.234;7.268;2023-04-03T00:48:31;4.00;99.90
11079;DHT22;5592;49.234;7.268;2023-04-03T00:50:59;4.00;99.90
11079;DHT22;5592;49.234;7.268;2023-04-03T00:53:38;4.00;99.90
11079;DHT22;5592;49.234;7.268;2023-04-03T00:56:09;4.00;99.90
11079;DHT22;5592;49.234;7.268;2023-04-03T00:58:51;4.00;99.90
11079;DHT22;5592;49.234;7.268;2023-04-03T01:01:21;3.90;99.90
11079;DHT22;5592;49.234;7.268;2023-04-03T01:03:48;3.70;99.90
11079;DHT22;5592;49.234;7.268;2023-04-03T01:06:17;3.50;99.90
11079;DHT22;5592;49.234;7.268;2023-04-03T01:08:44;3.40;99.90
11079;DHT22;5592;49.234;7.268;2023-04-03T01:11:12;3.30;99.90
11079;DHT22;5592;49.234;7.268;2023-04-03T01:13:37;3.30;99.90
11079;DHT22;5592;49.234;7.268;2023-04-03T01:16:04;3.20;99.90
11079;DHT22;5592;49.234;7.268;2023-04-03T01:18:31;3.10;99.90
11079;DHT22;5592;49.234;7.268;2023-04-03T01:26:20;2.80;99.90
11079;DHT22;5592;49.234;7.268;2023-04-03T01:28:46;2.70;99.90
11079;DHT22;5592;49.234;7.268;2023-04-03T01:31:22;2.60;99.90
11079;DHT22;5592;49.234;7.268;2023-04-03T01:33:50;2.40;99.90
11079;DHT22;5592;49.234;7.268;2023-04-03T01:36:28;2.30;99.90
11079;DHT22;5592;49.234;7.268;2023-04-03T01:38:55;2.30;99.90
11079;DHT22;5592;49.234;7.268;2023-04-03T01:41:21;2.20;99.90
11079;DHT22;5592;49.234;7.268;2023-04-03T01:43:48;2.20;99.90
11079;DHT22;5592;49.234;7.268;2023-04-03T01:46:14;2.10;99.90
11079;DHT22;5592;49.234;7.268;2023-04-03T01:48:40;2.10;99.90
11079;DHT22;5592;49.234;7.268;2023-04-03T01:51:06;2.00;99.90
11079;DHT22;5592;49.234;7.268;2023-04-03T01:53:32;1.90;99.90
11079;DHT22;5592;49.234;7.268;2023-04-03T01:55:57;1.80;99.90
11079;DHT22;5592;49.234;7.268;2023-04-03T01:58:23;1.70;99.90
11079;DHT22;5592;49.234;7.268;2023-04-03T02:00:48;1.70;99.90
11079;DHT22;5592;49.234;7.268;2023-04-03T02:03:14;1.70;99.90
11079;DHT22;5592;49.234;7.268;2023-04-03T02:05:40;1.70;99.90
11079;DHT22;5592;49.234;7.268;2023-04-03T02:08:06;1.60;99.90
11079;DHT22;5592;49.234;7.268;2023-04-03T02:10:32;1.60;99.90
11079;DHT22;5592;49.234;7.268;2023-04-03T02:12:57;1.60;99.90
11079;DHT22;5592;49.234;7.268;2023-04-03T02:15:26;1.60;99.90
11079;DHT22;5592;49.234;7.268;2023-04-03T02:17:52;1.50;99.90
11079;DHT22;5592;49.234;7.268;2023-04-03T02:20:18;1.60;99.90
11079;DHT22;5592;49.234;7.268;2023-04-03T02:22:43;1.50;99.90
11079;DHT22;5592;49.234;7.268;2023-04-03T02:25:09;1.60;99.90
11079;DHT22;5592;49.234;7.268;2023-04-03T02:27:36;1.60;99.90
11079;DHT22;5592;49.234;7.268;2023-04-03T02:30:03;1.60;99.90
11079;DHT22;5592;49.234;7.268;2023-04-03T02:32:28;1.60;99.90
11079;DHT22;5592;49.234;7.268;2023-04-03T02:34:54;1.60;99.90
11079;DHT22;5592;49.234;7.268;2023-04-03T02:37:20;1.60;99.90
11079;DHT22;5592;49.234;7.268;2023-04-03T02:39:46;1.50;99.90
11079;DHT22;5592;49.234;7.268;2023-04-03T02:42:12;1.50;99.90
11079;DHT22;5592;49.234;7.268;2023-04-03T02:44:38;1.50;99.90
11079;DHT22;5592;49.234;7.268;2023-04-03T02:47:04;1.40;99.90
11079;DHT22;5592;49.234;7.268;2023-04-03T02:49:30;1.20;99.90
11079;DHT22;5592;49.234;7.268;2023-04-03T02:51:56;1.10;99.90
11079;DHT22;5592;49.234;7.268;2023-04-03T02:54:21;1.10;99.90
11079;DHT22;5592;49.234;7.268;2023-04-03T02:56:48;1.10;99.90
11079;DHT22;5592;49.234;7.268;2023-04-03T02:59:14;1.10;99.90
11079;DHT22;5592;49.234;7.268;2023-04-03T03:01:40;1.10;99.90
11079;DHT22;5592;49.234;7.268;2023-04-03T03:04:05;1.10;99.90
11079;DHT22;5592;49.234;7.268;2023-04-03T03:06:31;1.00;99.90
11079;DHT22;5592;49.234;7.268;2023-04-03T03:08:56;1.00;99.90
11079;DHT22;5592;49.234;7.268;2023-04-03T03:11:22;1.00;99.90
11079;DHT22;5592;49.234;7.268;2023-04-03T03:13:47;1.10;99.90
11079;DHT22;5592;49.234;7.268;2023-04-03T03:16:13;1.10;99.90
11079;DHT22;5592;49.234;7.268;2023-04-03T03:18:38;1.00;99.90
11079;DHT22;5592;49.234;7.268;2023-04-03T03:21:04;1.00;99.90
11079;DHT22;5592;49.234;7.268;2023-04-03T03:23:31;1.00;99.90
11079;DHT22;5592;49.234;7.268;2023-04-03T03:26:03;1.00;99.90
11079;DHT22;5592;49.234;7.268;2023-04-03T03:28:29;0.90;99.90
11079;DHT22;5592;49.234;7.268;2023-04-03T03:30:59;0.80;99.90
11079;DHT22;5592;49.234;7.268;2023-04-03T03:33:25;0.80;99.90
11079;DHT22;5592;49.234;7.268;2023-04-03T03:35:52;0.70;99.90
11079;DHT22;5592;49.234;7.268;2023-04-03T03:38:19;0.70;99.90
11079;DHT22;5592;49.234;7.268;2023-04-03T03:40:46;0.70;99.90
11079;DHT22;5592;49.234;7.268;2023-04-03T03:43:12;0.70;99.90
11079;DHT22;5592;49.234;7.268;2023-04-03T03:45:37;0.70;99.90
11079;DHT22;5592;49.234;7.268;2023-04-03T03:48:03;0.70;99.90
11079;DHT22;5592;49.234;7.268;2023-04-03T03:50:29;0.60;99.90
11079;DHT22;5592;49.234;7.268;2023-04-03T03:52:55;0.70;99.90
11079;DHT22;5592;49.234;7.268;2023-04-03T03:55:20;0.70;99.90
11079;DHT22;5592;49.234;7.268;2023-04-03T03:57:46;0.80;99.90
11079;DHT22;5592;49.234;7.268;2023-04-03T04:00:12;0.80;99.90
11079;DHT22;5592;49.234;7.268;2023-04-03T04:02:37;0.90;99.90
11079;DHT22;5592;49.234;7.268;2023-04-03T04:05:03;0.90;99.90
11079;DHT22;5592;49.234;7.268;2023-04-03T04:07:29;1.00;99.90
11079;DHT22;5592;49.234;7.268;2023-04-03T04:09:55;1.00;99.90
11079;DHT22;5592;49.234;7.268;2023-04-03T04:12:21;1.10;99.90
11079;DHT22;5592;49.234;7.268;2023-04-03T04:14:46;1.10;99.90
11079;DHT22;5592;49.234;7.268;2023-04-03T04:17:13;1.10;99.90
11079;DHT22;5592;49.234;7.268;2023-04-03T04:19:38;1.10;99.90
11079;DHT22;5592;49.234;7.268;2023-04-03T04:22:04;1.00;99.90
11079;DHT22;5592;49.234;7.268;2023-04-03T04:24:30;1.00;99.90
11079;DHT22;5592;49.234;7.268;2023-04-03T04:26:55;0.90;99.90
11079;DHT22;5592;49.234;7.268;2023-04-03T04:29:22;0.80;99.90
11079;DHT22;5592;49.234;7.268;2023-04-03T04:31:47;0.60;99.90
11079;DHT22;5592;49.234;7.268;2023-04-03T04:34:13;0.40;99.90
11079;DHT22;5592;49.234;7.268;2023-04-03T04:36:39;0.40;99.90
11079;DHT22;5592;49.234;7.268;2023-04-03T04:39:04;0.40;99.90
11079;DHT22;5592;49.234;7.268;2023-04-03T04:41:30;0.40;99.90
11079;DHT22;5592;49.234;7.268;2023-04-03T04:43:56;0.50;99.90
11079;DHT22;5592;49.234;7.268;2023-04-03T04:46:22;0.60;99.90
11079;DHT22;5592;49.234;7.268;2023-04-03T04:48:48;0.70;99.90
11079;DHT22;5592;49.234;7.268;2023-04-03T04:51:14;0.80;99.90
11079;DHT22;5592;49.234;7.268;2023-04-03T04:53:40;0.80;99.90
11079;DHT22;5592;49.234;7.268;2023-04-03T04:56:06;0.80;99.90
11079;DHT22;5592;49.234;7.268;2023-04-03T04:58:32;0.80;99.90
11079;DHT22;5592;49.234;7.268;2023-04-03T05:00:59;0.80;99.90
11079;DHT22;5592;49.234;7.268;2023-04-03T05:03:25;0.80;99.90
11079;DHT22;5592;49.234;7.268;2023-04-03T05:05:51;0.80;99.90
11079;DHT22;5592;49.234;7.268;2023-04-03T05:08:16;0.80;99.90
11079;DHT22;5592;49.234;7.268;2023-04-03T05:10:42;0.90;99.90
11079;DHT22;5592;49.234;7.268;2023-04-03T05:13:08;0.80;99.90
11079;DHT22;5592;49.234;7.268;2023-04-03T05:15:33;0.80;99.90
11079;DHT22;5592;49.234;7.268;2023-04-03T05:17:59;0.80;99.90
11079;DHT22;5592;49.234;7.268;2023-04-03T05:20:24;0.90;99.90
11079;DHT22;5592;49.234;7.268;2023-04-03T05:22:50;0.90;99.90
11079;DHT22;5592;49.234;7.268;2023-04-03T05:25:16;1.00;99.90
11079;DHT22;5592;49.234;7.268;2023-04-03T05:27:41;1.00;99.90
11079;DHT22;5592;49.234;7.268;2023-04-03T05:30:07;1.00;99.90
11079;DHT22;5592;49.234;7.268;2023-04-03T05:32:33;1.10;99.90
11079;DHT22;5592;49.234;7.268;2023-04-03T05:34:58;1.30;99.90
11079;DHT22;5592;49.234;7.268;2023-04-03T05:37:24;1.50;99.90
11079;DHT22;5592;49.234;7.268;2023-04-03T05:39:49;1.90;99.90
11079;DHT22;5592;49.234;7.268;2023-04-03T05:42:16;2.40;99.90
11079;DHT22;5592;49.234;7.268;2023-04-03T05:44:42;2.90;99.90
11079;DHT22;5592;49.234;7.268;2023-04-03T05:47:08;3.10;99.90
11079;DHT22;5592;49.234;7.268;2023-04-03T05:49:34;3.20;99.90
11079;DHT22;5592;49.234;7.268;2023-04-03T05:52:01;3.30;99.90
11079;DHT22;5592;49.234;7.268;2023-04-03T05:54:28;3.40;99.90
11079;DHT22;5592;49.234;7.268;2023-04-03T05:56:54;3.40;99.90
11079;DHT22;5592;49.234;7.268;2023-04-03T05:59:20;3.50;99.90
11079;DHT22;5592;49.234;7.268;2023-04-03T06:01:46;3.70;99.90
11079;DHT22;5592;49.234;7.268;2023-04-03T06:04:13;3.90;99.90
11079;DHT22;5592;49.234;7.268;2023-04-03T06:06:51;4.10;99.90
11079;DHT22;5592;49.234;7.268;2023-04-03T06:09:19;4.30;99.90
11079;DHT22;5592;49.234;7.268;2023-04-03T06:11:45;4.50;99.90
11079;DHT22;5592;49.234;7.268;2023-04-03T06:14:11;4.80;99.90
11079;DHT22;5592;49.234;7.268;2023-04-03T06:16:37;5.00;99.90
11079;DHT22;5592;49.234;7.268;2023-04-03T06:19:05;5.30;99.90
11079;DHT22;5592;49.234;7.268;2023-04-03T06:21:31;5.90;99.90
11079;DHT22;5592;49.234;7.268;2023-04-03T06:23:57;6.40;99.90
11079;DHT22;5592;49.234;7.268;2023-04-03T06:26:22;7.40;99.90
11079;DHT22;5592;49.234;7.268;2023-04-03T06:28:48;8.80;99.90
11079;DHT22;5592;49.234;7.268;2023-04-03T06:31:14;10.10;99.90
11079;DHT22;5592;49.234;7.268;2023-04-03T06:33:39;11.20;99.90
11079;DHT22;5592;49.234;7.268;2023-04-03T06:36:05;12.30;99.90
11079;DHT22;5592;49.234;7.268;2023-04-03T06:38:33;13.50;98.60
11079;DHT22;5592;49.234;7.268;2023-04-03T06:40:59;14.10;98.60
11079;DHT22;5592;49.234;7.268;2023-04-03T06:43:25;15.10;95.30
11079;DHT22;5592;49.234;7.268;2023-04-03T06:45:51;16.30;91.70
11079;DHT22;5592;49.234;7.268;2023-04-03T06:48:17;16.60;86.90
11079;DHT22;5592;49.234;7.268;2023-04-03T06:50:42;16.90;80.90
11079;DHT22;5592;49.234;7.268;2023-04-03T06:53:08;17.20;80.10
11079;DHT22;5592;49.234;7.268;2023-04-03T06:55:34;17.50;76.00
11079;DHT22;5592;49.234;7.268;2023-04-03T06:58:00;17.40;74.30
11079;DHT22;5592;49.234;7.268;2023-04-03T07:00:25;17.60;70.00
11079;DHT22;5592;49.234;7.268;2023-04-03T07:02:51;17.50;73.90
11079;DHT22;5592;49.234;7.268;2023-04-03T07:05:17;17.00;72.30
11079;DHT22;5592;49.234;7.268;2023-04-03T07:07:43;17.30;70.30
11079;DHT22;5592;49.234;7.268;2023-04-03T07:10:09;16.90;70.10
11079;DHT22;5592;49.234;7.268;2023-04-03T07:12:35;17.80;69.30
11079;DHT22;5592;49.234;7.268;2023-04-03T07:15:01;18.30;67.50
11079;DHT22;5592;49.234;7.268;2023-04-03T07:17:26;18.40;65.20
11079;DHT22;5592;49.234;7.268;2023-04-03T07:19:52;17.90;65.60
11079;DHT22;5592;49.234;7.268;2023-04-03T07:22:18;18.00;65.70
11079;DHT22;5592;49.234;7.268;2023-04-03T07:24:43;17.90;66.20
11079;DHT22;5592;49.234;7.268;2023-04-03T07:27:09;18.10;67.20
11079;DHT22;5592;49.234;7.268;2023-04-03T07:29:36;17.30;65.70
11079;DHT22;5592;49.234;7.268;2023-04-03T07:32:02;17.80;66.90
11079;DHT22;5592;49.234;7.268;2023-04-03T07:34:28;18.40;66.20
11079;DHT22;5592;49.234;7.268;2023-04-03T07:36:53;18.80;66.00
11079;DHT22;5592;49.234;7.268;2023-04-03T07:39:20;18.20;64.40
11079;DHT22;5592;49.234;7.268;2023-04-03T07:41:45;18.00;64.60
11079;DHT22;5592;49.234;7.268;2023-04-03T07:44:11;17.50;65.50
11079;DHT22;5592;49.234;7.268;2023-04-03T07:46:37;17.20;67.30
11079;DHT22;5592;49.234;7.268;2023-04-03T07:49:03;16.50;67.50
11079;DHT22;5592;49.234;7.268;2023-04-03T07:51:29;16.60;69.20
11079;DHT22;5592;49.234;7.268;2023-04-03T07:53:55;16.90;70.60
11079;DHT22;5592;49.234;7.268;2023-04-03T07:56:21;16.80;69.50
11079;DHT22;5592;49.234;7.268;2023-04-03T07:58:47;16.00;70.30
11079;DHT22;5592;49.234;7.268;2023-04-03T08:01:13;14.10;71.40
11079;DHT22;5592;49.234;7.268;2023-04-03T08:03:39;13.60;76.80
11079;DHT22;5592;49.234;7.268;2023-04-03T08:06:06;13.60;76.50
11079;DHT22;5592;49.234;7.268;2023-04-03T08:08:33;12.90;77.90
11079;DHT22;5592;49.234;7.268;2023-04-03T08:11:00;11.50;81.80
11079;DHT22;5592;49.234;7.268;2023-04-03T08:13:26;11.40;87.50
11079;DHT22;5592;49.234;7.268;2023-04-03T08:15:52;11.90;86.80
11079;DHT22;5592;49.234;7.268;2023-04-03T08:18:18;11.20;87.60
11079;DHT22;5592;49.234;7.268;2023-04-03T08:20:46;11.40;88.80
11079;DHT22;5592;49.234;7.268;2023-04-03T08:23:12;12.20;87.90
11079;DHT22;5592;49.234;7.268;2023-04-03T08:25:40;12.10;87.00
11079;DHT22;5592;49.234;7.268;2023-04-03T08:28:06;12.40;87.30
11079;DHT22;5592;49.234;7.268;2023-04-03T08:30:32;13.00;83.30
11079;DHT22;5592;49.234;7.268;2023-04-03T08:33:01;13.40;81.50
11079;DHT22;5592;49.234;7.268;2023-04-03T08:35:27;13.00;82.30
11079;DHT22;5592;49.234;7.268;2023-04-03T08:37:52;13.20;83.70
11079;DHT22;5592;49.234;7.268;2023-04-03T08:40:18;13.10;80.90
11079;DHT22;5592;49.234;7.268;2023-04-03T08:45:43;12.50;84.80
11079;DHT22;5592;49.234;7.268;2023-04-03T08:48:12;14.00;82.60
11079;DHT22;5592;49.234;7.268;2023-04-03T08:50:43;12.90;80.70
11079;DHT22;5592;49.234;7.268;2023-04-03T08:53:21;11.90;86.80
11079;DHT22;5592;49.234;7.268;2023-04-03T08:55:49;13.70;90.60
11079;DHT22;5592;49.234;7.268;2023-04-03T08:58:19;15.60;80.10
11079;DHT22;5592;49.234;7.268;2023-04-03T09:00:56;17.10;76.60
11079;DHT22;5592;49.234;7.268;2023-04-03T09:03:23;18.00;75.10
11079;DHT22;5592;49.234;7.268;2023-04-03T09:06:16;18.40;70.00
11079;DHT22;5592;49.234;7.268;2023-04-03T09:09:07;16.90;72.20
11079;DHT22;5592;49.234;7.268;2023-04-03T09:17:14;16.40;70.70
11079;DHT22;5592;49.234;7.268;2023-04-03T09:19:57;16.70;69.70
11079;DHT22;5592;49.234;7.268;2023-04-03T09:22:25;16.50;73.30
11079;DHT22;5592;49.234;7.268;2023-04-03T09:25:05;16.70;73.30
11079;DHT22;5592;49.234;7.268;2023-04-03T09:27:34;17.60;74.60
11079;DHT22;5592;49.234;7.268;2023-04-03T09:29:59;17.80;68.70
11079;DHT22;5592;49.234;7.268;2023-04-03T09:32:32;17.10;67.10
11079;DHT22;5592;49.234;7.268;2023-04-03T09:35:25;16.00;66.40
11079;DHT22;5592;49.234;7.268;2023-04-03T09:37:54;15.30;70.80
11079;DHT22;5592;49.234;7.268;2023-04-03T09:40:31;13.90;70.70
11079;DHT22;5592;49.234;7.268;2023-04-03T09:43:02;13.60;76.60
11079;DHT22;5592;49.234;7.268;2023-04-03T09:45:33;14.40;73.00
11079;DHT22;5592;49.234;7.268;2023-04-03T09:48:16;15.80;78.80
11079;DHT22;5592;49.234;7.268;2023-04-03T09:50:58;17.00;68.00
11079;DHT22;5592;49.234;7.268;2023-04-03T09:53:43;17.40;67.10
11079;DHT22;5592;49.234;7.268;2023-04-03T09:58:43;17.60;66.40
11079;DHT22;5592;49.234;7.268;2023-04-03T10:01:29;17.40;65.60
11079;DHT22;5592;49.234;7.268;2023-04-03T10:06:36;18.70;62.40
11079;DHT22;5592;49.234;7.268;2023-04-03T10:09:15;18.10;61.90
11079;DHT22;5592;49.234;7.268;2023-04-03T10:12:03;17.70;61.70
11079;DHT22;5592;49.234;7.268;2023-04-03T10:14:34;16.80;64.80
11079;DHT22;5592;49.234;7.268;2023-04-03T10:17:18;15.20;62.00
11079;DHT22;5592;49.234;7.268;2023-04-03T10:19:55;14.30;67.90
11079;DHT22;5592;49.234;7.268;2023-04-03T10:22:44;13.70;64.70
11079;DHT22;5592;49.234;7.268;2023-04-03T10:25:29;12.90;64.60
11079;DHT22;5592;49.234;7.268;2023-04-03T10:28:12;12.50;66.40
11079;DHT22;5592;49.234;7.268;2023-04-03T10:39:20;11.00;70.90
11079;DHT22;5592;49.234;7.268;2023-04-03T10:47:18;13.30;67.60
11079;DHT22;5592;49.234;7.268;2023-04-03T10:49:56;12.50;67.40
11079;DHT22;5592;49.234;7.268;2023-04-03T10:52:45;12.10;66.80
11079;DHT22;5592;49.234;7.268;2023-04-03T10:58:05;11.20;70.50
11079;DHT22;5592;49.234;7.268;2023-04-03T11:00:47;10.90;74.00
11079;DHT22;5592;49.234;7.268;2023-04-03T11:05:55;11.30;70.50
11079;DHT22;5592;49.234;7.268;2023-04-03T11:11:00;11.40;71.00
11079;DHT22;5592;49.234;7.268;2023-04-03T11:13:37;11.90;67.50
11079;DHT22;5592;49.234;7.268;2023-04-03T11:16:04;12.40;68.00
11079;DHT22;5592;49.234;7.268;2023-04-03T11:18:40;12.80;66.20
11079;DHT22;5592;49.234;7.268;2023-04-03T11:21:37;12.30;67.30
11079;DHT22;5592;49.234;7.268;2023-04-03T11:24:15;11.50;66.70
11079;DHT22;5592;49.234;7.268;2023-04-03T11:26:42;11.00;66.90
11079;DHT22;5592;49.234;7.268;2023-04-03T11:29:16;10.80;70.30
11079;DHT22;5592;49.234;7.268;2023-04-03T11:34:56;11.50;73.40
11079;DHT22;5592;49.234;7.268;2023-04-03T11:37:38;11.40;71.30
11079;DHT22;5592;49.234;7.268;2023-04-03T11:40:36;11.10;71.00
11079;DHT22;5592;49.234;7.268;2023-04-03T11:43:29;10.90;74.20
11079;DHT22;5592;49.234;7.268;2023-04-03T11:46:06;11.40;76.20
11079;DHT22;5592;49.234;7.268;2023-04-03T11:51:47;11.10;77.60
11079;DHT22;5592;49.234;7.268;2023-04-03T11:53:48;11.40;73.60
11079;DHT22;5592;49.234;7.268;2023-04-03T12:01:44;10.20;72.50
11079;DHT22;5592;49.234;7.268;2023-04-03T12:04:13;9.80;76.10
11079;DHT22;5592;49.234;7.268;2023-04-03T12:09:30;9.60;77.70
11079;DHT22;5592;49.234;7.268;2023-04-03T12:11:59;9.60;82.70
11079;DHT22;5592;49.234;7.268;2023-04-03T12:14:26;9.60;81.00
11079;DHT22;5592;49.234;7.268;2023-04-03T12:16:56;9.60;78.10
11079;DHT22;5592;49.234;7.268;2023-04-03T12:19:38;9.60;79.30
11079;DHT22;5592;49.234;7.268;2023-04-03T12:22:14;9.90;78.00
11079;DHT22;5592;49.234;7.268;2023-04-03T12:24:43;10.60;79.60
11079;DHT22;5592;49.234;7.268;2023-04-03T12:27:33;11.00;77.30
11079;DHT22;5592;49.234;7.268;2023-04-03T12:30:21;10.90;74.80
11079;DHT22;5592;49.234;7.268;2023-04-03T12:35:51;10.30;76.70
11079;DHT22;5592;49.234;7.268;2023-04-03T12:41:36;10.20;76.60
11079;DHT22;5592;49.234;7.268;2023-04-03T12:44:26;10.00;79.20
11079;DHT22;5592;49.234;7.268;2023-04-03T12:47:00;9.80;80.50
11079;DHT22;5592;49.234;7.268;2023-04-03T12:49:35;9.80;84.10
11079;DHT22;5592;49.234;7.268;2023-04-03T12:52:21;9.60;84.80
11079;DHT22;5592;49.234;7.268;2023-04-03T12:54:50;9.60;82.00
11079;DHT22;5592;49.234;7.268;2023-04-03T12:57:19;9.60;84.10
11079;DHT22;5592;49.234;7.268;2023-04-03T12:59:45;10.20;83.40
11079;DHT22;5592;49.234;7.268;2023-04-03T13:02:28;10.50;81.30
11079;DHT22;5592;49.234;7.268;2023-04-03T13:04:57;10.40;80.30
11079;DHT22;5592;49.234;7.268;2023-04-03T13:07:41;10.20;81.40
11079;DHT22;5592;49.234;7.268;2023-04-03T13:12:56;10.30;78.60
11079;DHT22;5592;49.234;7.268;2023-04-03T13:15:30;10.20;78.20
11079;DHT22;5592;49.234;7.268;2023-04-03T13:18:05;10.00;85.50
11079;DHT22;5592;49.234;7.268;2023-04-03T13:20:33;10.00;83.80
11079;DHT22;5592;49.234;7.268;2023-04-03T13:23:04;9.90;79.60
11079;DHT22;5592;49.234;7.268;2023-04-03T13:25:33;9.80;83.20
11079;DHT22;5592;49.234;7.268;2023-04-03T13:28:01;9.70;83.10
11079;DHT22;5592;49.234;7.268;2023-04-03T13:30:33;10.00;79.80
11079;DHT22;5592;49.234;7.268;2023-04-03T13:33:01;10.40;79.00
11079;DHT22;5592;49.234;7.268;2023-04-03T13:35:31;10.50;76.90
11079;DHT22;5592;49.234;7.268;2023-04-03T13:38:00;10.40;76.10
11079;DHT22;5592;49.234;7.268;2023-04-03T13:40:26;10.30;78.40
11079;DHT22;5592;49.234;7.268;2023-04-03T13:43:03;10.30;80.00
11079;DHT22;5592;49.234;7.268;2023-04-03T13:45:31;10.50;85.00
11079;DHT22;5592;49.234;7.268;2023-04-03T13:48:16;10.80;77.30
11079;DHT22;5592;49.234;7.268;2023-04-03T13:51:15;10.60;73.60
11079;DHT22;5592;49.234;7.268;2023-04-03T13:53:48;10.40;75.00
11079;DHT22;5592;49.234;7.268;2023-04-03T13:56:21;10.50;79.70
11079;DHT22;5592;49.234;7.268;2023-04-03T14:01:48;10.00;76.60
11079;DHT22;5592;49.234;7.268;2023-04-03T14:04:27;9.90;76.40
11079;DHT22;5592;49.234;7.268;2023-04-03T14:06:54;9.60;77.50
11079;DHT22;5592;49.234;7.268;2023-04-03T14:09:21;9.80;82.70
11079;DHT22;5592;49.234;7.268;2023-04-03T14:11:48;10.10;78.10
11079;DHT22;5592;49.234;7.268;2023-04-03T14:16:54;10.20;78.10
11079;DHT22;5592;49.234;7.268;2023-04-03T14:19:26;9.90;81.50
11079;DHT22;5592;49.234;7.268;2023-04-03T14:21:54;9.70;81.20
11079;DHT22;5592;49.234;7.268;2023-04-03T14:24:20;9.70;80.60
11079;DHT22;5592;49.234;7.268;2023-04-03T14:26:48;9.50;79.80
11079;DHT22;5592;49.234;7.268;2023-04-03T14:29:13;9.50;80.90
11079;DHT22;5592;49.234;7.268;2023-04-03T14:31:42;9.50;79.70
11079;DHT22;5592;49.234;7.268;2023-04-03T14:34:13;9.60;82.80
11079;DHT22;5592;49.234;7.268;2023-04-03T14:36:40;9.80;83.10
11079;DHT22;5592;49.234;7.268;2023-04-03T14:39:07;9.80;82.20
11079;DHT22;5592;49.234;7.268;2023-04-03T14:41:34;9.90;85.70
11079;DHT22;5592;49.234;7.268;2023-04-03T14:43:59;10.00;81.70
11079;DHT22;5592;49.234;7.268;2023-04-03T14:46:27;9.90;79.70
11079;DHT22;5592;49.234;7.268;2023-04-03T14:48:54;9.40;82.40
11079;DHT22;5592;49.234;7.268;2023-04-03T14:51:20;9.30;83.30
11079;DHT22;5592;49.234;7.268;2023-04-03T14:53:46;9.30;82.70
11079;DHT22;5592;49.234;7.268;2023-04-03T14:56:21;9.30;81.20
11079;DHT22;5592;49.234;7.268;2023-04-03T14:58:49;9.40;80.50
11079;DHT22;5592;49.234;7.268;2023-04-03T15:01:17;9.50;83.00
11079;DHT22;5592;49.234;7.268;2023-04-03T15:03:42;9.60;87.00
11079;DHT22;5592;49.234;7.268;2023-04-03T15:06:13;9.40;83.00
11079;DHT22;5592;49.234;7.268;2023-04-03T15:08:39;9.30;87.30
11079;DHT22;5592;49.234;7.268;2023-04-03T15:11:06;9.30;90.20
11079;DHT22;5592;49.234;7.268;2023-04-03T15:13:32;9.40;85.90
11079;DHT22;5592;49.234;7.268;2023-04-03T15:15:58;9.40;85.40
11079;DHT22;5592;49.234;7.268;2023-04-03T15:18:26;9.50;84.10
11079;DHT22;5592;49.234;7.268;2023-04-03T15:20:53;9.60;80.70
11079;DHT22;5592;49.234;7.268;2023-04-03T15:23:19;9.50;83.60
11079;DHT22;5592;49.234;7.268;2023-04-03T15:25:46;9.40;80.10
11079;DHT22;5592;49.234;7.268;2023-04-03T15:30:43;8.90;82.80
11079;DHT22;5592;49.234;7.268;2023-04-03T15:33:08;8.80;85.70
11079;DHT22;5592;49.234;7.268;2023-04-03T15:35:35;8.70;86.60
11079;DHT22;5592;49.234;7.268;2023-04-03T15:38:00;8.90;90.80
11079;DHT22;5592;49.234;7.268;2023-04-03T15:40:26;9.00;92.30
11079;DHT22;5592;49.234;7.268;2023-04-03T15:42:51;9.00;90.90
11079;DHT22;5592;49.234;7.268;2023-04-03T15:45:17;8.70;89.90
11079;DHT22;5592;49.234;7.268;2023-04-03T15:47:42;8.30;86.10
11079;DHT22;5592;49.234;7.268;2023-04-03T15:50:08;8.10;90.50
11079;DHT22;5592;49.234;7.268;2023-04-03T15:52:34;8.10;89.90
11079;DHT22;5592;49.234;7.268;2023-04-03T15:55:00;8.10;87.00
11079;DHT22;5592;49.234;7.268;2023-04-03T15:57:26;8.20;85.30
11079;DHT22;5592;49.234;7.268;2023-04-03T15:59:52;8.40;86.90
11079;DHT22;5592;49.234;7.268;2023-04-03T16:02:18;8.40;90.70
11079;DHT22;5592;49.234;7.268;2023-04-03T16:04:44;8.30;85.70
11079;DHT22;5592;49.234;7.268;2023-04-03T16:07:09;8.10;84.00
11079;DHT22;5592;49.234;7.268;2023-04-03T16:09:36;7.90;82.90
11079;DHT22;5592;49.234;7.268;2023-04-03T16:12:01;7.80;85.20
11079;DHT22;5592;49.234;7.268;2023-04-03T16:14:27;7.70;86.90
11079;DHT22;5592;49.234;7.268;2023-04-03T16:16:55;7.70;85.80
11079;DHT22;5592;49.234;7.268;2023-04-03T16:19:21;7.80;88.80
11079;DHT22;5592;49.234;7.268;2023-04-03T16:21:47;7.90;85.50
11079;DHT22;5592;49.234;7.268;2023-04-03T16:24:12;8.00;87.60
11079;DHT22;5592;49.234;7.268;2023-04-03T16:26:38;8.20;92.00
11079;DHT22;5592;49.234;7.268;2023-04-03T16:29:03;8.20;90.20
11079;DHT22;5592;49.234;7.268;2023-04-03T16:31:32;8.10;91.40
11079;DHT22;5592;49.234;7.268;2023-04-03T16:33:58;7.90;91.80
11079;DHT22;5592;49.234;7.268;2023-04-03T16:36:24;7.80;91.80
11079;DHT22;5592;49.234;7.268;2023-04-03T16:38:51;7.70;90.60
11079;DHT22;5592;49.234;7.268;2023-04-03T16:41:16;7.40;91.60
11079;DHT22;5592;49.234;7.268;2023-04-03T16:43:44;7.40;92.70
11079;DHT22;5592;49.234;7.268;2023-04-03T16:46:09;7.30;90.20
11079;DHT22;5592;49.234;7.268;2023-04-03T16:48:35;7.30;90.40
11079;DHT22;5592;49.234;7.268;2023-04-03T16:51:00;7.20;89.10
11079;DHT22;5592;49.234;7.268;2023-04-03T16:53:26;7.20;90.90
11079;DHT22;5592;49.234;7.268;2023-04-03T16:55:52;7.10;91.00
11079;DHT22;5592;49.234;7.268;2023-04-03T16:58:18;7.10;89.20
11079;DHT22;5592;49.234;7.268;2023-04-03T17:00:43;7.20;91.20
11079;DHT22;5592;49.234;7.268;2023-04-03T17:03:09;7.10;90.30
11079;DHT22;5592;49.234;7.268;2023-04-03T17:05:35;7.10;86.50
11079;DHT22;5592;49.234;7.268;2023-04-03T17:08:00;7.10;85.70
11079;DHT22;5592;49.234;7.268;2023-04-03T17:10:27;7.10;89.60
11079;DHT22;5592;49.234;7.268;2023-04-03T17:12:53;7.00;87.20
11079;DHT22;5592;49.234;7.268;2023-04-03T17:15:18;7.00;86.50
11079;DHT22;5592;49.234;7.268;2023-04-03T17:17:45;6.90;86.40